PWSweather.com
Personal Weather Stations
Station Observations
KPASPRIN10
East Vincent, East Vincent, PA 19475

East VincentEast Vincent, PA 19475

Lat: 40.170948, Lon: -75.629681

Elevation: 404

Station Type: Davis VP2

http://www.evweather.com

High Low Average
Temperature 36.7°F2.6°C 27.2°F-2.7°C 30.8°F-0.7°C
Dew Point 26.1°F-3.3°C 20.2°F-6.6°C 22.5°F-5.3°C
Winds 16.1 mph 25.9 kmh 4.6 mph 7.4 kmh 9.0 mph W14.5 kmh W
Wind Gusts 26.5 mph42.6 kmh 3.5 mph5.6 kmh 13.0 mph20.9 kmh
Humidity 77% 62% 71%
Pressure 29.76 in1007.8 mb 29.62 in1003.0 mb -
Precipitation 0.00 in0.0 mm - -
Hour Temp Dew Point Humidity Winds Wind Gusts Pressure Precip Precip Rate Daily Precip Total
12:00 AM 30.2°F-1.0°C 22.6°F-5.2°C 73% 5.8 mph WSW9.3 kmh WSW 8.1 mph13.0 kmh 29.76 in1007.8 mb - 0.00 in0.0 mm 0.00 in0.0 mm
12:10 AM 30.1°F-1.1°C 22.8°F-5.1°C 74% 6.9 mph WSW11.1 kmh WSW 10.4 mph16.7 kmh 29.76 in1007.8 mb - 0.00 in0.0 mm 0.00 in0.0 mm
12:20 AM 30.2°F-1.0°C 23.2°F-4.9°C 75% 5.8 mph WSW9.3 kmh WSW 12.7 mph20.4 kmh 29.76 in1007.8 mb - 0.00 in0.0 mm 0.00 in0.0 mm
12:30 AM 30.4°F-0.9°C 23.1°F-4.9°C 74% 6.9 mph W11.1 kmh W 6.9 mph11.1 kmh 29.76 in1007.8 mb - 0.00 in0.0 mm 0.00 in0.0 mm
12:40 AM 30.5°F-0.8°C 23.2°F-4.9°C 74% 8.1 mph WSW13.0 kmh WSW 11.5 mph18.5 kmh 29.76 in1007.8 mb - 0.00 in0.0 mm 0.00 in0.0 mm
12:50 AM 30.4°F-0.9°C 23.1°F-4.9°C 74% 8.1 mph WSW13.0 kmh WSW 8.1 mph13.0 kmh 29.76 in1007.8 mb - 0.00 in0.0 mm 0.00 in0.0 mm
01:00 AM 30.3°F-0.9°C 23.0°F-5.0°C 74% 6.9 mph WSW11.1 kmh WSW 11.5 mph18.5 kmh 29.76 in1007.8 mb - 0.00 in0.0 mm 0.00 in0.0 mm
01:10 AM 30.1°F-1.1°C 23.1°F-4.9°C 75% 5.8 mph WSW9.3 kmh WSW 9.2 mph14.8 kmh 29.76 in1007.8 mb - 0.00 in0.0 mm 0.00 in0.0 mm
01:20 AM 30.1°F-1.1°C 23.4°F-4.8°C 76% 8.1 mph W13.0 kmh W 12.7 mph20.4 kmh 29.76 in1007.8 mb - 0.00 in0.0 mm 0.00 in0.0 mm
01:30 AM 30.0°F-1.1°C 23.4°F-4.8°C 76% 6.9 mph WSW11.1 kmh WSW 9.2 mph14.8 kmh 29.76 in1007.8 mb - 0.00 in0.0 mm 0.00 in0.0 mm
01:40 AM 29.9°F-1.2°C 23.3°F-4.8°C 76% 8.1 mph W13.0 kmh W 11.5 mph18.5 kmh 29.75 in1007.5 mb - 0.00 in0.0 mm 0.00 in0.0 mm
01:50 AM 29.9°F-1.2°C 23.6°F-4.7°C 77% 8.1 mph WSW13.0 kmh WSW 9.2 mph14.8 kmh 29.76 in1007.8 mb - 0.00 in0.0 mm 0.00 in0.0 mm
02:00 AM 29.8°F-1.2°C 23.5°F-4.7°C 77% 9.2 mph WSW14.8 kmh WSW 12.7 mph20.4 kmh 29.75 in1007.5 mb - 0.00 in0.0 mm 0.00 in0.0 mm
02:10 AM 29.9°F-1.2°C 23.3°F-4.8°C 76% 9.2 mph W14.8 kmh W 11.5 mph18.5 kmh 29.75 in1007.5 mb - 0.00 in0.0 mm 0.00 in0.0 mm
02:20 AM 29.7°F-1.3°C 23.1°F-4.9°C 76% 6.9 mph WSW11.1 kmh WSW 10.4 mph16.7 kmh 29.75 in1007.5 mb - 0.00 in0.0 mm 0.00 in0.0 mm
02:30 AM 29.6°F-1.3°C 23.0°F-5.0°C 76% 8.1 mph W13.0 kmh W 10.4 mph16.7 kmh 29.75 in1007.5 mb - 0.00 in0.0 mm 0.00 in0.0 mm
02:40 AM 29.5°F-1.4°C 22.9°F-5.1°C 76% 8.1 mph W13.0 kmh W 9.2 mph14.8 kmh 29.75 in1007.5 mb - 0.00 in0.0 mm 0.00 in0.0 mm
02:50 AM 29.3°F-1.5°C 22.7°F-5.2°C 76% 5.8 mph WSW9.3 kmh WSW 11.5 mph18.5 kmh 29.75 in1007.5 mb - 0.00 in0.0 mm 0.00 in0.0 mm
03:00 AM 29.2°F-1.6°C 22.6°F-5.2°C 76% 6.9 mph WSW11.1 kmh WSW 9.2 mph14.8 kmh 29.75 in1007.5 mb - 0.00 in0.0 mm 0.00 in0.0 mm
03:10 AM 29.1°F-1.6°C 22.5°F-5.3°C 76% 8.1 mph WSW13.0 kmh WSW 9.2 mph14.8 kmh 29.74 in1007.1 mb - 0.00 in0.0 mm 0.00 in0.0 mm
03:20 AM 28.9°F-1.7°C 22.3°F-5.4°C 76% 6.9 mph WSW11.1 kmh WSW 10.4 mph16.7 kmh 29.74 in1007.1 mb - 0.00 in0.0 mm 0.00 in0.0 mm
03:30 AM 28.8°F-1.8°C 22.2°F-5.4°C 76% 8.1 mph WSW13.0 kmh WSW 9.2 mph14.8 kmh 29.74 in1007.1 mb - 0.00 in0.0 mm 0.00 in0.0 mm
03:40 AM 28.8°F-1.8°C 22.2°F-5.4°C 76% 6.9 mph W11.1 kmh W 9.2 mph14.8 kmh 29.73 in1006.8 mb - 0.00 in0.0 mm 0.00 in0.0 mm
03:50 AM 28.7°F-1.8°C 22.1°F-5.5°C 76% 6.9 mph W11.1 kmh W 10.4 mph16.7 kmh 29.73 in1006.8 mb - 0.00 in0.0 mm 0.00 in0.0 mm
04:00 AM 28.6°F-1.9°C 22.0°F-5.6°C 76% 8.1 mph W13.0 kmh W 11.5 mph18.5 kmh 29.73 in1006.8 mb - 0.00 in0.0 mm 0.00 in0.0 mm
04:10 AM 28.6°F-1.9°C 22.0°F-5.6°C 76% 6.9 mph W11.1 kmh W 11.5 mph18.5 kmh 29.73 in1006.8 mb - 0.00 in0.0 mm 0.00 in0.0 mm
04:20 AM 28.5°F-1.9°C 21.9°F-5.6°C 76% 6.9 mph W11.1 kmh W 11.5 mph18.5 kmh 29.73 in1006.8 mb - 0.00 in0.0 mm 0.00 in0.0 mm
04:30 AM 28.5°F-1.9°C 21.9°F-5.6°C 76% 8.1 mph W13.0 kmh W 11.5 mph18.5 kmh 29.72 in1006.4 mb - 0.00 in0.0 mm 0.00 in0.0 mm
04:40 AM 28.5°F-1.9°C 21.9°F-5.6°C 76% 6.9 mph W11.1 kmh W 11.5 mph18.5 kmh 29.72 in1006.4 mb - 0.00 in0.0 mm 0.00 in0.0 mm
04:50 AM 28.4°F-2.0°C 21.8°F-5.7°C 76% 9.2 mph W14.8 kmh W 15.0 mph24.1 kmh 29.72 in1006.4 mb - 0.00 in0.0 mm 0.00 in0.0 mm
05:00 AM 28.4°F-2.0°C 21.5°F-5.8°C 75% 9.2 mph W14.8 kmh W 12.7 mph20.4 kmh 29.72 in1006.4 mb - 0.00 in0.0 mm 0.00 in0.0 mm
05:10 AM 28.4°F-2.0°C 21.5°F-5.8°C 75% 9.2 mph W14.8 kmh W 10.4 mph16.7 kmh 29.72 in1006.4 mb - 0.00 in0.0 mm 0.00 in0.0 mm
05:20 AM 28.3°F-2.1°C 21.4°F-5.9°C 75% 6.9 mph W11.1 kmh W 9.2 mph14.8 kmh 29.71 in1006.1 mb - 0.00 in0.0 mm 0.00 in0.0 mm
05:30 AM 28.1°F-2.2°C 21.2°F-6.0°C 75% 8.1 mph W13.0 kmh W 10.4 mph16.7 kmh 29.71 in1006.1 mb - 0.00 in0.0 mm 0.00 in0.0 mm
05:40 AM 28.0°F-2.2°C 21.1°F-6.1°C 75% 6.9 mph W11.1 kmh W 11.5 mph18.5 kmh 29.71 in1006.1 mb - 0.00 in0.0 mm 0.00 in0.0 mm
05:50 AM 28.0°F-2.2°C 21.1°F-6.1°C 75% 9.2 mph W14.8 kmh W 11.5 mph18.5 kmh 29.71 in1006.1 mb - 0.00 in0.0 mm 0.00 in0.0 mm
06:00 AM 28.0°F-2.2°C 21.1°F-6.1°C 75% 9.2 mph WNW14.8 kmh WNW 11.5 mph18.5 kmh 29.71 in1006.1 mb - 0.00 in0.0 mm 0.00 in0.0 mm
06:20 AM 27.7°F-2.4°C 20.8°F-6.2°C 75% 8.1 mph WSW13.0 kmh WSW 9.2 mph14.8 kmh 29.71 in1006.1 mb - 0.00 in0.0 mm 0.00 in0.0 mm
06:30 AM 27.6°F-2.4°C 20.7°F-6.3°C 75% 4.6 mph WSW7.4 kmh WSW 3.5 mph5.6 kmh 29.71 in1006.1 mb - 0.00 in0.0 mm 0.00 in0.0 mm
06:40 AM 27.5°F-2.5°C 20.6°F-6.3°C 75% 6.9 mph WSW11.1 kmh WSW 9.2 mph14.8 kmh 29.71 in1006.1 mb - 0.00 in0.0 mm 0.00 in0.0 mm
06:50 AM 27.4°F-2.6°C 20.5°F-6.4°C 75% 5.8 mph W9.3 kmh W 5.8 mph9.3 kmh 29.71 in1006.1 mb - 0.00 in0.0 mm 0.00 in0.0 mm
07:00 AM 27.3°F-2.6°C 20.4°F-6.4°C 75% 5.8 mph W9.3 kmh W 6.9 mph11.1 kmh 29.71 in1006.1 mb - 0.00 in0.0 mm 0.00 in0.0 mm
07:10 AM 27.2°F-2.7°C 20.3°F-6.5°C 75% 6.9 mph W11.1 kmh W 10.4 mph16.7 kmh 29.71 in1006.1 mb - 0.00 in0.0 mm 0.00 in0.0 mm
07:20 AM 27.3°F-2.6°C 20.4°F-6.4°C 75% 9.2 mph WSW14.8 kmh WSW 11.5 mph18.5 kmh 29.71 in1006.1 mb - 0.00 in0.0 mm 0.00 in0.0 mm
07:30 AM 27.3°F-2.6°C 20.4°F-6.4°C 75% 5.8 mph W9.3 kmh W 10.4 mph16.7 kmh 29.71 in1006.1 mb - 0.00 in0.0 mm 0.00 in0.0 mm
07:40 AM 27.4°F-2.6°C 20.2°F-6.6°C 74% 8.1 mph WSW13.0 kmh WSW 10.4 mph16.7 kmh 29.71 in1006.1 mb - 0.00 in0.0 mm 0.00 in0.0 mm
07:50 AM 27.5°F-2.5°C 20.3°F-6.5°C 74% 9.2 mph WSW14.8 kmh WSW 11.5 mph18.5 kmh 29.71 in1006.1 mb - 0.00 in0.0 mm 0.00 in0.0 mm
08:00 AM 27.8°F-2.3°C 20.6°F-6.3°C 74% 10.4 mph WSW16.7 kmh WSW 12.7 mph20.4 kmh 29.71 in1006.1 mb - 0.00 in0.0 mm 0.00 in0.0 mm
08:10 AM 28.1°F-2.2°C 20.9°F-6.2°C 74% 10.4 mph W16.7 kmh W 11.5 mph18.5 kmh 29.71 in1006.1 mb - 0.00 in0.0 mm 0.00 in0.0 mm
08:20 AM 28.6°F-1.9°C 21.0°F-6.1°C 73% 9.2 mph W14.8 kmh W 11.5 mph18.5 kmh 29.71 in1006.1 mb - 0.00 in0.0 mm 0.00 in0.0 mm
08:30 AM 29.0°F-1.7°C 20.8°F-6.2°C 71% 11.5 mph W18.5 kmh W 15.0 mph24.1 kmh 29.71 in1006.1 mb - 0.00 in0.0 mm 0.00 in0.0 mm
08:40 AM 29.5°F-1.4°C 21.3°F-5.9°C 71% 12.7 mph WSW20.4 kmh WSW 16.1 mph25.9 kmh 29.71 in1006.1 mb - 0.00 in0.0 mm 0.00 in0.0 mm
08:50 AM 30.0°F-1.1°C 21.4°F-5.9°C 70% 9.2 mph WNW14.8 kmh WNW 11.5 mph18.5 kmh 29.71 in1006.1 mb - 0.00 in0.0 mm 0.00 in0.0 mm
09:00 AM 30.5°F-0.8°C 21.2°F-6.0°C 68% 12.7 mph W20.4 kmh W 12.7 mph20.4 kmh 29.70 in1005.8 mb - 0.00 in0.0 mm 0.00 in0.0 mm
09:10 AM 30.8°F-0.7°C 21.1°F-6.1°C 67% 11.5 mph W18.5 kmh W 15.0 mph24.1 kmh 29.70 in1005.8 mb - 0.00 in0.0 mm 0.00 in0.0 mm
09:20 AM 30.9°F-0.6°C 21.6°F-5.8°C 68% 10.4 mph W16.7 kmh W 16.1 mph25.9 kmh 29.70 in1005.8 mb - 0.00 in0.0 mm 0.00 in0.0 mm
09:30 AM 31.6°F-0.2°C 21.9°F-5.6°C 67% 9.2 mph WSW14.8 kmh WSW 15.0 mph24.1 kmh 29.70 in1005.8 mb - 0.00 in0.0 mm 0.00 in0.0 mm
09:40 AM 32.1°F0.1°C 22.0°F-5.6°C 66% 9.2 mph W14.8 kmh W 12.7 mph20.4 kmh 29.70 in1005.8 mb - 0.00 in0.0 mm 0.00 in0.0 mm
09:50 AM 32.3°F0.2°C 21.8°F-5.7°C 65% 9.2 mph W14.8 kmh W 15.0 mph24.1 kmh 29.69 in1005.4 mb - 0.00 in0.0 mm 0.00 in0.0 mm
10:00 AM 32.0°F0.0°C 21.9°F-5.6°C 66% 12.7 mph WSW20.4 kmh WSW 16.1 mph25.9 kmh 29.69 in1005.4 mb - 0.00 in0.0 mm 0.00 in0.0 mm
10:10 AM 32.4°F0.2°C 22.3°F-5.4°C 66% 10.4 mph W16.7 kmh W 16.1 mph25.9 kmh 29.69 in1005.4 mb - 0.00 in0.0 mm 0.00 in0.0 mm
10:20 AM 32.5°F0.3°C 22.0°F-5.6°C 65% 11.5 mph W18.5 kmh W 24.2 mph38.9 kmh 29.69 in1005.4 mb - 0.00 in0.0 mm 0.00 in0.0 mm
10:30 AM 32.3°F0.2°C 22.2°F-5.4°C 66% 12.7 mph W20.4 kmh W 26.5 mph42.6 kmh 29.69 in1005.4 mb - 0.00 in0.0 mm 0.00 in0.0 mm
10:40 AM 32.3°F0.2°C 21.8°F-5.7°C 65% 10.4 mph WNW16.7 kmh WNW 15.0 mph24.1 kmh 29.69 in1005.4 mb - 0.00 in0.0 mm 0.00 in0.0 mm
10:50 AM 33.0°F0.6°C 22.9°F-5.1°C 66% 13.8 mph WSW22.2 kmh WSW 19.6 mph31.5 kmh 29.68 in1005.1 mb - 0.00 in0.0 mm 0.00 in0.0 mm
11:00 AM 34.0°F1.1°C 23.5°F-4.7°C 65% 11.5 mph WNW18.5 kmh WNW 17.3 mph27.8 kmh 29.68 in1005.1 mb - 0.00 in0.0 mm 0.00 in0.0 mm
11:10 AM 34.2°F1.2°C 23.3°F-4.8°C 64% 9.2 mph W14.8 kmh W 11.5 mph18.5 kmh 29.68 in1005.1 mb - 0.00 in0.0 mm 0.00 in0.0 mm
11:20 AM 34.3°F1.3°C 23.4°F-4.8°C 64% 13.8 mph W22.2 kmh W 17.3 mph27.8 kmh 29.68 in1005.1 mb - 0.00 in0.0 mm 0.00 in0.0 mm
11:30 AM 33.9°F1.1°C 23.8°F-4.6°C 66% 16.1 mph W25.9 kmh W 19.6 mph31.5 kmh 29.68 in1005.1 mb - 0.00 in0.0 mm 0.00 in0.0 mm
11:40 AM 34.1°F1.2°C 23.9°F-4.5°C 66% 12.7 mph W20.4 kmh W 17.3 mph27.8 kmh 29.68 in1005.1 mb - 0.00 in0.0 mm 0.00 in0.0 mm
11:50 AM 35.0°F1.7°C 25.1°F-3.8°C 67% 13.8 mph WSW22.2 kmh WSW 21.9 mph35.2 kmh 29.67 in1004.7 mb - 0.00 in0.0 mm 0.00 in0.0 mm
12:00 PM 34.8°F1.6°C 24.2°F-4.3°C 65% 10.4 mph WNW16.7 kmh WNW 18.4 mph29.6 kmh 29.67 in1004.7 mb - 0.00 in0.0 mm 0.00 in0.0 mm
12:10 PM 34.6°F1.4°C 24.8°F-4.0°C 67% 10.4 mph WSW16.7 kmh WSW 15.0 mph24.1 kmh 29.67 in1004.7 mb - 0.00 in0.0 mm 0.00 in0.0 mm
12:20 PM 34.8°F1.6°C 25.3°F-3.7°C 68% 12.7 mph W20.4 kmh W 18.4 mph29.6 kmh 29.67 in1004.7 mb - 0.00 in0.0 mm 0.00 in0.0 mm
12:30 PM 35.4°F1.9°C 25.5°F-3.6°C 67% 15.0 mph WSW24.1 kmh WSW 18.4 mph29.6 kmh 29.66 in1004.4 mb - 0.00 in0.0 mm 0.00 in0.0 mm
12:40 PM 35.7°F2.1°C 25.1°F-3.8°C 65% 13.8 mph WNW22.2 kmh WNW 17.3 mph27.8 kmh 29.66 in1004.4 mb - 0.00 in0.0 mm 0.00 in0.0 mm
12:50 PM 35.2°F1.8°C 25.0°F-3.9°C 66% 16.1 mph WNW25.9 kmh WNW 16.1 mph25.9 kmh 29.66 in1004.4 mb - 0.00 in0.0 mm 0.00 in0.0 mm
01:00 PM 35.7°F2.1°C 26.1°F-3.3°C 68% 10.4 mph WSW16.7 kmh WSW 23.0 mph37.0 kmh 29.66 in1004.4 mb - 0.00 in0.0 mm 0.00 in0.0 mm
01:20 PM 36.1°F2.3°C 25.5°F-3.6°C 65% 13.8 mph WSW22.2 kmh WSW 16.1 mph25.9 kmh 29.65 in1004.1 mb - 0.00 in0.0 mm 0.00 in0.0 mm
01:30 PM 36.4°F2.4°C 26.1°F-3.3°C 66% 9.2 mph W14.8 kmh W 12.7 mph20.4 kmh 29.64 in1003.7 mb - 0.00 in0.0 mm 0.00 in0.0 mm
01:40 PM 35.9°F2.2°C 24.5°F-4.2°C 63% 12.7 mph W20.4 kmh W 17.3 mph27.8 kmh 29.63 in1003.4 mb - 0.00 in0.0 mm 0.00 in0.0 mm
01:50 PM 35.8°F2.1°C 24.0°F-4.4°C 62% 8.1 mph W13.0 kmh W 17.3 mph27.8 kmh 29.63 in1003.4 mb - 0.00 in0.0 mm 0.00 in0.0 mm
02:00 PM 36.2°F2.3°C 24.8°F-4.0°C 63% 11.5 mph W18.5 kmh W 16.1 mph25.9 kmh 29.62 in1003.0 mb - 0.00 in0.0 mm 0.00 in0.0 mm
02:10 PM 36.7°F2.6°C 24.9°F-3.9°C 62% 11.5 mph W18.5 kmh W 15.0 mph24.1 kmh 29.62 in1003.0 mb - 0.00 in0.0 mm 0.00 in0.0 mm